sensor_id;sensor_type;location;lat;lon;timestamp;P1;durP1;ratioP1;P2;durP2;ratioP2
23636;SDS011;11995;50.842;4.456;2022-09-09T00:09:17;7.72;;;2.27;;
23636;SDS011;11995;50.842;4.456;2022-09-09T00:11:54;7.75;;;2.00;;
23636;SDS011;11995;50.842;4.456;2022-09-09T00:14:35;4.85;;;1.85;;
23636;SDS011;11995;50.842;4.456;2022-09-09T00:17:11;5.30;;;1.82;;
23636;SDS011;11995;50.842;4.456;2022-09-09T00:19:56;6.55;;;1.95;;
23636;SDS011;11995;50.842;4.456;2022-09-09T00:22:27;8.20;;;1.85;;
23636;SDS011;11995;50.842;4.456;2022-09-09T00:25:14;6.03;;;2.10;;
23636;SDS011;11995;50.842;4.456;2022-09-09T00:27:47;5.00;;;2.05;;
23636;SDS011;11995;50.842;4.456;2022-09-09T00:30:16;4.25;;;1.80;;
23636;SDS011;11995;50.842;4.456;2022-09-09T00:32:50;4.42;;;1.75;;
23636;SDS011;11995;50.842;4.456;2022-09-09T00:35:24;8.20;;;2.15;;
23636;SDS011;11995;50.842;4.456;2022-09-09T00:38:13;6.70;;;1.90;;
23636;SDS011;11995;50.842;4.456;2022-09-09T00:40:54;7.53;;;2.05;;
23636;SDS011;11995;50.842;4.456;2022-09-09T00:54:31;6.83;;;1.80;;
23636;SDS011;11995;50.842;4.456;2022-09-09T00:57:22;7.58;;;1.55;;
23636;SDS011;11995;50.842;4.456;2022-09-09T01:00:15;9.75;;;2.17;;
23636;SDS011;11995;50.842;4.456;2022-09-09T01:02:32;4.35;;;1.85;;
23636;SDS011;11995;50.842;4.456;2022-09-09T01:05:17;7.40;;;1.80;;
23636;SDS011;11995;50.842;4.456;2022-09-09T01:07:44;5.95;;;1.60;;
23636;SDS011;11995;50.842;4.456;2022-09-09T01:10:38;6.78;;;1.65;;
23636;SDS011;11995;50.842;4.456;2022-09-09T01:12:54;8.65;;;2.00;;
23636;SDS011;11995;50.842;4.456;2022-09-09T01:15:26;9.50;;;1.70;;
23636;SDS011;11995;50.842;4.456;2022-09-09T01:17:59;6.42;;;1.85;;
23636;SDS011;11995;50.842;4.456;2022-09-09T01:20:29;8.90;;;2.02;;
23636;SDS011;11995;50.842;4.456;2022-09-09T01:25:56;6.08;;;2.80;;
23636;SDS011;11995;50.842;4.456;2022-09-09T01:28:19;5.47;;;1.72;;
23636;SDS011;11995;50.842;4.456;2022-09-09T01:30:48;9.85;;;2.08;;
23636;SDS011;11995;50.842;4.456;2022-09-09T01:33:17;5.03;;;1.85;;
23636;SDS011;11995;50.842;4.456;2022-09-09T01:35:47;6.17;;;2.00;;
23636;SDS011;11995;50.842;4.456;2022-09-09T01:38:20;10.70;;;3.00;;
23636;SDS011;11995;50.842;4.456;2022-09-09T01:40:49;11.68;;;2.45;;
23636;SDS011;11995;50.842;4.456;2022-09-09T01:43:18;9.40;;;2.17;;
23636;SDS011;11995;50.842;4.456;2022-09-09T01:45:47;10.85;;;2.20;;
23636;SDS011;11995;50.842;4.456;2022-09-09T01:48:17;8.15;;;2.42;;
23636;SDS011;11995;50.842;4.456;2022-09-09T01:50:45;7.90;;;2.10;;
23636;SDS011;11995;50.842;4.456;2022-09-09T01:53:13;10.53;;;2.35;;
23636;SDS011;11995;50.842;4.456;2022-09-09T01:55:45;7.90;;;2.60;;
23636;SDS011;11995;50.842;4.456;2022-09-09T01:58:32;10.45;;;2.77;;
23636;SDS011;11995;50.842;4.456;2022-09-09T02:03:40;8.38;;;2.22;;
23636;SDS011;11995;50.842;4.456;2022-09-09T02:08:59;9.50;;;2.67;;
23636;SDS011;11995;50.842;4.456;2022-09-09T02:11:30;10.53;;;2.70;;
23636;SDS011;11995;50.842;4.456;2022-09-09T02:14:01;9.53;;;3.12;;
23636;SDS011;11995;50.842;4.456;2022-09-09T02:16:36;9.93;;;2.60;;
23636;SDS011;11995;50.842;4.456;2022-09-09T02:21:53;8.88;;;2.83;;
23636;SDS011;11995;50.842;4.456;2022-09-09T02:24:24;11.93;;;2.98;;
23636;SDS011;11995;50.842;4.456;2022-09-09T02:26:53;7.87;;;2.30;;
23636;SDS011;11995;50.842;4.456;2022-09-09T02:29:34;9.38;;;3.00;;
23636;SDS011;11995;50.842;4.456;2022-09-09T02:32:04;10.58;;;2.80;;
23636;SDS011;11995;50.842;4.456;2022-09-09T02:34:35;9.60;;;2.42;;
23636;SDS011;11995;50.842;4.456;2022-09-09T02:37:05;9.55;;;2.90;;
23636;SDS011;11995;50.842;4.456;2022-09-09T02:39:34;13.30;;;2.87;;
23636;SDS011;11995;50.842;4.456;2022-09-09T02:42:03;10.03;;;2.72;;
23636;SDS011;11995;50.842;4.456;2022-09-09T02:44:32;9.73;;;2.30;;
23636;SDS011;11995;50.842;4.456;2022-09-09T02:52:32;13.68;;;2.98;;
23636;SDS011;11995;50.842;4.456;2022-09-09T02:57:52;11.70;;;3.08;;
23636;SDS011;11995;50.842;4.456;2022-09-09T03:00:27;13.28;;;3.00;;
23636;SDS011;11995;50.842;4.456;2022-09-09T03:02:55;13.62;;;3.37;;
23636;SDS011;11995;50.842;4.456;2022-09-09T03:05:23;11.88;;;3.58;;
23636;SDS011;11995;50.842;4.456;2022-09-09T03:07:51;20.72;;;3.02;;
23636;SDS011;11995;50.842;4.456;2022-09-09T03:10:19;11.70;;;2.75;;
23636;SDS011;11995;50.842;4.456;2022-09-09T03:12:47;13.03;;;3.10;;
23636;SDS011;11995;50.842;4.456;2022-09-09T03:15:14;13.80;;;3.15;;
23636;SDS011;11995;50.842;4.456;2022-09-09T03:17:42;14.45;;;3.30;;
23636;SDS011;11995;50.842;4.456;2022-09-09T03:20:10;16.67;;;3.42;;
23636;SDS011;11995;50.842;4.456;2022-09-09T03:22:38;10.53;;;2.90;;
23636;SDS011;11995;50.842;4.456;2022-09-09T03:25:06;13.27;;;2.90;;
23636;SDS011;11995;50.842;4.456;2022-09-09T03:27:34;12.60;;;3.20;;
23636;SDS011;11995;50.842;4.456;2022-09-09T03:30:01;13.68;;;3.25;;
23636;SDS011;11995;50.842;4.456;2022-09-09T03:32:29;17.20;;;3.45;;
23636;SDS011;11995;50.842;4.456;2022-09-09T03:34:57;10.20;;;3.15;;
23636;SDS011;11995;50.842;4.456;2022-09-09T03:37:24;10.72;;;4.30;;
23636;SDS011;11995;50.842;4.456;2022-09-09T03:39:52;13.68;;;3.65;;
23636;SDS011;11995;50.842;4.456;2022-09-09T03:42:23;21.27;;;11.45;;
23636;SDS011;11995;50.842;4.456;2022-09-09T03:44:51;14.10;;;3.40;;
23636;SDS011;11995;50.842;4.456;2022-09-09T03:47:19;13.28;;;2.92;;
23636;SDS011;11995;50.842;4.456;2022-09-09T03:49:50;16.12;;;3.52;;
23636;SDS011;11995;50.842;4.456;2022-09-09T03:52:18;13.18;;;3.12;;
23636;SDS011;11995;50.842;4.456;2022-09-09T03:54:47;10.30;;;2.62;;
23636;SDS011;11995;50.842;4.456;2022-09-09T03:57:15;15.78;;;2.90;;
23636;SDS011;11995;50.842;4.456;2022-09-09T04:02:10;18.62;;;3.50;;
23636;SDS011;11995;50.842;4.456;2022-09-09T04:04:38;20.88;;;3.60;;
23636;SDS011;11995;50.842;4.456;2022-09-09T04:07:05;9.65;;;3.85;;
23636;SDS011;11995;50.842;4.456;2022-09-09T04:09:33;16.67;;;3.37;;
23636;SDS011;11995;50.842;4.456;2022-09-09T04:12:01;12.07;;;2.92;;
23636;SDS011;11995;50.842;4.456;2022-09-09T04:14:30;14.55;;;3.83;;
23636;SDS011;11995;50.842;4.456;2022-09-09T04:16:58;16.00;;;3.62;;
23636;SDS011;11995;50.842;4.456;2022-09-09T04:19:26;15.50;;;4.40;;
23636;SDS011;11995;50.842;4.456;2022-09-09T04:21:53;13.28;;;3.12;;
23636;SDS011;11995;50.842;4.456;2022-09-09T04:24:21;11.68;;;3.25;;
23636;SDS011;11995;50.842;4.456;2022-09-09T04:26:50;14.20;;;3.12;;
23636;SDS011;11995;50.842;4.456;2022-09-09T04:29:18;13.03;;;3.80;;
23636;SDS011;11995;50.842;4.456;2022-09-09T04:31:45;12.28;;;3.47;;
23636;SDS011;11995;50.842;4.456;2022-09-09T04:34:13;13.18;;;3.90;;
23636;SDS011;11995;50.842;4.456;2022-09-09T04:36:40;13.85;;;3.75;;
23636;SDS011;11995;50.842;4.456;2022-09-09T04:39:08;16.65;;;4.12;;
23636;SDS011;11995;50.842;4.456;2022-09-09T04:41:35;16.95;;;3.10;;
23636;SDS011;11995;50.842;4.456;2022-09-09T04:44:03;18.95;;;5.60;;
23636;SDS011;11995;50.842;4.456;2022-09-09T04:46:31;22.02;;;4.67;;
23636;SDS011;11995;50.842;4.456;2022-09-09T04:49:00;11.95;;;3.58;;
23636;SDS011;11995;50.842;4.456;2022-09-09T04:51:27;16.37;;;4.37;;
23636;SDS011;11995;50.842;4.456;2022-09-09T04:53:57;13.95;;;3.67;;
23636;SDS011;11995;50.842;4.456;2022-09-09T04:56:24;16.02;;;3.42;;
23636;SDS011;11995;50.842;4.456;2022-09-09T04:58:54;17.87;;;4.15;;
23636;SDS011;11995;50.842;4.456;2022-09-09T05:01:22;11.97;;;3.27;;
23636;SDS011;11995;50.842;4.456;2022-09-09T05:03:50;13.70;;;4.37;;
23636;SDS011;11995;50.842;4.456;2022-09-09T05:06:19;17.90;;;4.45;;
23636;SDS011;11995;50.842;4.456;2022-09-09T05:08:49;15.23;;;4.60;;
23636;SDS011;11995;50.842;4.456;2022-09-09T05:11:20;16.93;;;4.62;;
23636;SDS011;11995;50.842;4.456;2022-09-09T05:13:51;11.73;;;4.15;;
23636;SDS011;11995;50.842;4.456;2022-09-09T05:16:19;12.93;;;4.17;;
23636;SDS011;11995;50.842;4.456;2022-09-09T05:21:17;11.33;;;3.58;;
23636;SDS011;11995;50.842;4.456;2022-09-09T05:26:14;17.05;;;4.00;;
23636;SDS011;11995;50.842;4.456;2022-09-09T05:28:43;14.83;;;4.25;;
23636;SDS011;11995;50.842;4.456;2022-09-09T05:31:11;19.40;;;4.50;;
23636;SDS011;11995;50.842;4.456;2022-09-09T05:33:40;17.25;;;4.25;;
23636;SDS011;11995;50.842;4.456;2022-09-09T05:36:12;17.23;;;4.17;;
23636;SDS011;11995;50.842;4.456;2022-09-09T05:38:42;17.52;;;3.98;;
23636;SDS011;11995;50.842;4.456;2022-09-09T05:43:38;12.65;;;3.47;;
23636;SDS011;11995;50.842;4.456;2022-09-09T05:46:07;23.42;;;4.30;;
23636;SDS011;11995;50.842;4.456;2022-09-09T05:48:39;18.90;;;3.75;;
23636;SDS011;11995;50.842;4.456;2022-09-09T05:51:09;16.70;;;3.17;;
23636;SDS011;11995;50.842;4.456;2022-09-09T05:53:44;15.63;;;3.45;;
23636;SDS011;11995;50.842;4.456;2022-09-09T05:56:18;19.75;;;4.05;;
23636;SDS011;11995;50.842;4.456;2022-09-09T05:58:46;13.08;;;3.65;;
23636;SDS011;11995;50.842;4.456;2022-09-09T06:01:16;13.70;;;4.08;;
23636;SDS011;11995;50.842;4.456;2022-09-09T06:03:45;14.80;;;3.92;;
23636;SDS011;11995;50.842;4.456;2022-09-09T06:06:16;13.22;;;3.65;;
23636;SDS011;11995;50.842;4.456;2022-09-09T06:08:47;14.50;;;3.30;;
23636;SDS011;11995;50.842;4.456;2022-09-09T06:11:18;12.23;;;4.03;;
23636;SDS011;11995;50.842;4.456;2022-09-09T06:13:47;16.20;;;3.37;;
23636;SDS011;11995;50.842;4.456;2022-09-09T06:16:18;19.10;;;3.25;;
23636;SDS011;11995;50.842;4.456;2022-09-09T06:18:50;8.43;;;2.67;;
23636;SDS011;11995;50.842;4.456;2022-09-09T06:23:47;13.77;;;3.00;;
23636;SDS011;11995;50.842;4.456;2022-09-09T06:26:17;11.50;;;2.55;;
23636;SDS011;11995;50.842;4.456;2022-09-09T06:28:53;12.25;;;3.00;;
23636;SDS011;11995;50.842;4.456;2022-09-09T06:31:23;12.60;;;2.87;;
23636;SDS011;11995;50.842;4.456;2022-09-09T06:33:54;10.60;;;2.42;;
23636;SDS011;11995;50.842;4.456;2022-09-09T06:36:27;13.70;;;2.83;;
23636;SDS011;11995;50.842;4.456;2022-09-09T06:39:02;16.82;;;3.42;;
23636;SDS011;11995;50.842;4.456;2022-09-09T06:41:31;13.48;;;3.08;;
23636;SDS011;11995;50.842;4.456;2022-09-09T06:43:59;12.15;;;2.90;;
23636;SDS011;11995;50.842;4.456;2022-09-09T06:46:28;23.12;;;4.42;;
23636;SDS011;11995;50.842;4.456;2022-09-09T06:48:58;21.17;;;3.83;;
23636;SDS011;11995;50.842;4.456;2022-09-09T06:51:30;12.18;;;3.08;;
23636;SDS011;11995;50.842;4.456;2022-09-09T06:54:00;17.75;;;3.15;;
23636;SDS011;11995;50.842;4.456;2022-09-09T06:59:07;15.48;;;2.95;;
23636;SDS011;11995;50.842;4.456;2022-09-09T07:01:34;13.98;;;2.62;;
23636;SDS011;11995;50.842;4.456;2022-09-09T07:04:04;13.38;;;3.02;;
23636;SDS011;11995;50.842;4.456;2022-09-09T07:06:34;13.22;;;2.67;;
23636;SDS011;11995;50.842;4.456;2022-09-09T07:09:04;14.00;;;3.02;;
23636;SDS011;11995;50.842;4.456;2022-09-09T07:11:40;13.62;;;3.60;;
23636;SDS011;11995;50.842;4.456;2022-09-09T07:14:12;13.03;;;2.77;;
23636;SDS011;11995;50.842;4.456;2022-09-09T07:16:43;13.70;;;3.15;;
23636;SDS011;11995;50.842;4.456;2022-09-09T07:19:12;13.38;;;2.60;;
23636;SDS011;11995;50.842;4.456;2022-09-09T07:21:40;17.00;;;3.98;;
23636;SDS011;11995;50.842;4.456;2022-09-09T07:24:08;13.72;;;3.08;;
23636;SDS011;11995;50.842;4.456;2022-09-09T07:26:37;14.07;;;2.63;;
23636;SDS011;11995;50.842;4.456;2022-09-09T07:29:06;17.45;;;3.42;;
23636;SDS011;11995;50.842;4.456;2022-09-09T07:31:36;14.03;;;3.12;;
23636;SDS011;11995;50.842;4.456;2022-09-09T07:34:05;12.05;;;2.65;;
23636;SDS011;11995;50.842;4.456;2022-09-09T07:36:34;14.73;;;2.77;;
23636;SDS011;11995;50.842;4.456;2022-09-09T07:39:05;12.60;;;3.20;;
23636;SDS011;11995;50.842;4.456;2022-09-09T07:41:39;15.43;;;3.08;;
23636;SDS011;11995;50.842;4.456;2022-09-09T07:44:10;11.65;;;2.47;;
23636;SDS011;11995;50.842;4.456;2022-09-09T07:46:39;11.18;;;2.25;;
23636;SDS011;11995;50.842;4.456;2022-09-09T07:49:08;11.63;;;3.02;;
23636;SDS011;11995;50.842;4.456;2022-09-09T07:51:40;11.40;;;2.77;;
23636;SDS011;11995;50.842;4.456;2022-09-09T07:54:10;12.43;;;3.10;;
23636;SDS011;11995;50.842;4.456;2022-09-09T07:56:39;13.13;;;2.58;;
23636;SDS011;11995;50.842;4.456;2022-09-09T07:59:08;10.78;;;3.20;;
23636;SDS011;11995;50.842;4.456;2022-09-09T08:01:37;11.65;;;3.35;;
23636;SDS011;11995;50.842;4.456;2022-09-09T08:04:07;12.50;;;3.05;;
23636;SDS011;11995;50.842;4.456;2022-09-09T08:06:43;11.63;;;3.50;;
23636;SDS011;11995;50.842;4.456;2022-09-09T08:09:13;12.23;;;2.87;;
23636;SDS011;11995;50.842;4.456;2022-09-09T08:11:41;10.63;;;2.72;;
23636;SDS011;11995;50.842;4.456;2022-09-09T08:14:10;14.65;;;2.85;;
23636;SDS011;11995;50.842;4.456;2022-09-09T08:16:40;10.72;;;3.12;;
23636;SDS011;11995;50.842;4.456;2022-09-09T08:19:09;14.23;;;2.83;;
23636;SDS011;11995;50.842;4.456;2022-09-09T08:21:38;11.87;;;2.80;;
23636;SDS011;11995;50.842;4.456;2022-09-09T08:24:07;14.47;;;3.75;;
23636;SDS011;11995;50.842;4.456;2022-09-09T08:26:37;15.55;;;3.15;;
23636;SDS011;11995;50.842;4.456;2022-09-09T08:29:07;11.18;;;2.85;;
23636;SDS011;11995;50.842;4.456;2022-09-09T08:31:37;14.28;;;3.75;;
23636;SDS011;11995;50.842;4.456;2022-09-09T08:34:06;18.82;;;3.12;;
23636;SDS011;11995;50.842;4.456;2022-09-09T08:36:36;12.50;;;2.85;;
23636;SDS011;11995;50.842;4.456;2022-09-09T08:39:06;16.10;;;3.25;;
23636;SDS011;11995;50.842;4.456;2022-09-09T08:44:16;8.60;;;2.60;;
23636;SDS011;11995;50.842;4.456;2022-09-09T08:52:17;12.45;;;3.12;;
23636;SDS011;11995;50.842;4.456;2022-09-09T08:55:03;8.15;;;2.45;;
23636;SDS011;11995;50.842;4.456;2022-09-09T08:57:32;14.70;;;2.92;;
23636;SDS011;11995;50.842;4.456;2022-09-09T09:00:01;13.50;;;2.90;;
23636;SDS011;11995;50.842;4.456;2022-09-09T09:02:47;11.83;;;2.90;;
23636;SDS011;11995;50.842;4.456;2022-09-09T09:05:18;14.65;;;2.65;;
23636;SDS011;11995;50.842;4.456;2022-09-09T09:10:44;13.80;;;2.62;;
23636;SDS011;11995;50.842;4.456;2022-09-09T09:13:15;13.30;;;3.15;;
23636;SDS011;11995;50.842;4.456;2022-09-09T09:15:48;15.03;;;3.10;;
23636;SDS011;11995;50.842;4.456;2022-09-09T09:18:16;14.78;;;3.70;;
23636;SDS011;11995;50.842;4.456;2022-09-09T09:20:50;8.58;;;3.00;;
23636;SDS011;11995;50.842;4.456;2022-09-09T09:23:25;16.35;;;3.00;;
23636;SDS011;11995;50.842;4.456;2022-09-09T09:25:58;19.05;;;3.77;;
23636;SDS011;11995;50.842;4.456;2022-09-09T09:28:29;8.85;;;2.52;;
23636;SDS011;11995;50.842;4.456;2022-09-09T09:31:06;15.83;;;3.77;;
23636;SDS011;11995;50.842;4.456;2022-09-09T09:36:12;10.82;;;2.58;;
23636;SDS011;11995;50.842;4.456;2022-09-09T09:38:59;8.40;;;2.65;;
23636;SDS011;11995;50.842;4.456;2022-09-09T09:41:31;19.65;;;4.08;;
23636;SDS011;11995;50.842;4.456;2022-09-09T09:44:01;9.68;;;2.75;;
23636;SDS011;11995;50.842;4.456;2022-09-09T09:46:30;15.32;;;3.72;;
23636;SDS011;11995;50.842;4.456;2022-09-09T09:51:29;16.05;;;3.72;;
23636;SDS011;11995;50.842;4.456;2022-09-09T09:54:07;14.53;;;3.00;;
23636;SDS011;11995;50.842;4.456;2022-09-09T09:56:31;12.47;;;3.20;;
23636;SDS011;11995;50.842;4.456;2022-09-09T09:58:59;12.30;;;3.52;;
23636;SDS011;11995;50.842;4.456;2022-09-09T10:01:27;12.60;;;3.40;;
23636;SDS011;11995;50.842;4.456;2022-09-09T10:04:14;11.35;;;3.50;;
23636;SDS011;11995;50.842;4.456;2022-09-09T10:06:43;13.72;;;4.05;;
23636;SDS011;11995;50.842;4.456;2022-09-09T10:14:37;8.73;;;3.08;;
23636;SDS011;11995;50.842;4.456;2022-09-09T10:25:23;8.65;;;3.77;;
23636;SDS011;11995;50.842;4.456;2022-09-09T10:33:50;7.95;;;3.55;;
23636;SDS011;11995;50.842;4.456;2022-09-09T10:36:32;18.07;;;4.15;;
23636;SDS011;11995;50.842;4.456;2022-09-09T10:39:10;9.83;;;4.30;;
23636;SDS011;11995;50.842;4.456;2022-09-09T10:52:40;10.75;;;3.20;;
23636;SDS011;11995;50.842;4.456;2022-09-09T10:55:16;11.83;;;2.95;;
23636;SDS011;11995;50.842;4.456;2022-09-09T10:57:48;13.18;;;3.65;;
23636;SDS011;11995;50.842;4.456;2022-09-09T11:00:19;9.20;;;3.10;;
23636;SDS011;11995;50.842;4.456;2022-09-09T11:02:51;10.88;;;3.40;;
23636;SDS011;11995;50.842;4.456;2022-09-09T11:05:20;13.75;;;3.65;;
23636;SDS011;11995;50.842;4.456;2022-09-09T11:10:45;6.35;;;2.22;;
23636;SDS011;11995;50.842;4.456;2022-09-09T11:13:27;11.40;;;2.17;;
23636;SDS011;11995;50.842;4.456;2022-09-09T11:21:50;16.30;;;3.08;;
23636;SDS011;11995;50.842;4.456;2022-09-09T11:24:25;8.68;;;2.15;;
23636;SDS011;11995;50.842;4.456;2022-09-09T11:32:39;9.38;;;2.25;;
23636;SDS011;11995;50.842;4.456;2022-09-09T11:38:01;11.73;;;2.25;;
23636;SDS011;11995;50.842;4.456;2022-09-09T11:40:30;10.58;;;2.50;;
23636;SDS011;11995;50.842;4.456;2022-09-09T11:43:09;7.20;;;2.45;;
23636;SDS011;11995;50.842;4.456;2022-09-09T11:48:21;11.77;;;2.80;;
23636;SDS011;11995;50.842;4.456;2022-09-09T11:51:24;8.10;;;2.33;;
23636;SDS011;11995;50.842;4.456;2022-09-09T11:53:50;6.78;;;2.35;;
23636;SDS011;11995;50.842;4.456;2022-09-09T11:59:21;5.58;;;1.98;;
23636;SDS011;11995;50.842;4.456;2022-09-09T12:01:58;10.13;;;2.58;;
23636;SDS011;11995;50.842;4.456;2022-09-09T12:04:33;8.75;;;2.22;;
23636;SDS011;11995;50.842;4.456;2022-09-09T12:09:46;10.50;;;2.00;;
23636;SDS011;11995;50.842;4.456;2022-09-09T12:12:21;14.47;;;2.98;;
23636;SDS011;11995;50.842;4.456;2022-09-09T12:15:03;9.18;;;2.08;;
23636;SDS011;11995;50.842;4.456;2022-09-09T12:17:28;7.80;;;1.75;;
23636;SDS011;11995;50.842;4.456;2022-09-09T12:22:50;9.18;;;2.00;;
23636;SDS011;11995;50.842;4.456;2022-09-09T12:33:42;10.00;;;2.08;;
23636;SDS011;11995;50.842;4.456;2022-09-09T12:36:17;7.15;;;2.02;;
23636;SDS011;11995;50.842;4.456;2022-09-09T12:38:43;9.28;;;2.10;;
23636;SDS011;11995;50.842;4.456;2022-09-09T12:41:20;9.73;;;2.20;;
23636;SDS011;11995;50.842;4.456;2022-09-09T12:43:50;5.97;;;2.70;;
23636;SDS011;11995;50.842;4.456;2022-09-09T12:46:30;7.40;;;1.60;;
23636;SDS011;11995;50.842;4.456;2022-09-09T12:48:55;8.68;;;1.85;;
23636;SDS011;11995;50.842;4.456;2022-09-09T12:51:26;12.25;;;2.15;;
23636;SDS011;11995;50.842;4.456;2022-09-09T12:53:56;10.32;;;1.70;;
23636;SDS011;11995;50.842;4.456;2022-09-09T12:56:26;5.15;;;1.70;;
23636;SDS011;11995;50.842;4.456;2022-09-09T12:58:56;10.60;;;2.25;;
23636;SDS011;11995;50.842;4.456;2022-09-09T13:01:27;9.93;;;2.02;;
23636;SDS011;11995;50.842;4.456;2022-09-09T13:03:56;9.45;;;2.10;;
23636;SDS011;11995;50.842;4.456;2022-09-09T13:06:28;5.08;;;1.17;;
23636;SDS011;11995;50.842;4.456;2022-09-09T13:08:58;5.40;;;1.55;;
23636;SDS011;11995;50.842;4.456;2022-09-09T13:13:58;6.30;;;1.65;;
23636;SDS011;11995;50.842;4.456;2022-09-09T13:19:00;5.35;;;2.33;;
23636;SDS011;11995;50.842;4.456;2022-09-09T13:21:32;8.70;;;1.85;;
23636;SDS011;11995;50.842;4.456;2022-09-09T13:24:04;12.18;;;2.30;;
23636;SDS011;11995;50.842;4.456;2022-09-09T13:26:33;6.42;;;1.95;;
23636;SDS011;11995;50.842;4.456;2022-09-09T13:29:14;5.95;;;1.77;;
23636;SDS011;11995;50.842;4.456;2022-09-09T13:31:38;9.03;;;1.60;;
23636;SDS011;11995;50.842;4.456;2022-09-09T13:34:14;5.15;;;1.40;;
23636;SDS011;11995;50.842;4.456;2022-09-09T13:37:02;10.72;;;1.52;;
23636;SDS011;11995;50.842;4.456;2022-09-09T13:39:28;6.70;;;1.55;;
23636;SDS011;11995;50.842;4.456;2022-09-09T13:41:56;4.90;;;1.77;;
23636;SDS011;11995;50.842;4.456;2022-09-09T13:44:24;7.42;;;1.95;;
23636;SDS011;11995;50.842;4.456;2022-09-09T13:47:29;8.73;;;3.92;;
23636;SDS011;11995;50.842;4.456;2022-09-09T13:49:42;7.20;;;1.65;;
23636;SDS011;11995;50.842;4.456;2022-09-09T13:52:13;4.60;;;1.32;;
23636;SDS011;11995;50.842;4.456;2022-09-09T13:54:42;7.20;;;2.08;;
23636;SDS011;11995;50.842;4.456;2022-09-09T13:57:21;5.35;;;1.60;;
23636;SDS011;11995;50.842;4.456;2022-09-09T13:59:46;4.05;;;1.20;;
23636;SDS011;11995;50.842;4.456;2022-09-09T14:02:14;5.85;;;1.27;;
23636;SDS011;11995;50.842;4.456;2022-09-09T14:07:18;5.22;;;1.47;;
23636;SDS011;11995;50.842;4.456;2022-09-09T14:09:43;6.28;;;1.80;;
23636;SDS011;11995;50.842;4.456;2022-09-09T14:12:12;9.48;;;1.90;;
23636;SDS011;11995;50.842;4.456;2022-09-09T14:14:41;5.20;;;1.45;;
23636;SDS011;11995;50.842;4.456;2022-09-09T14:17:09;3.58;;;1.45;;
23636;SDS011;11995;50.842;4.456;2022-09-09T14:19:37;7.85;;;1.77;;
23636;SDS011;11995;50.842;4.456;2022-09-09T14:22:05;6.83;;;1.62;;
23636;SDS011;11995;50.842;4.456;2022-09-09T14:24:33;8.50;;;1.57;;
23636;SDS011;11995;50.842;4.456;2022-09-09T14:27:01;6.65;;;1.55;;
23636;SDS011;11995;50.842;4.456;2022-09-09T14:29:28;6.70;;;1.98;;
23636;SDS011;11995;50.842;4.456;2022-09-09T14:31:56;9.60;;;2.25;;
23636;SDS011;11995;50.842;4.456;2022-09-09T14:34:28;7.65;;;2.17;;
23636;SDS011;11995;50.842;4.456;2022-09-09T14:36:56;7.83;;;1.67;;
23636;SDS011;11995;50.842;4.456;2022-09-09T14:39:23;7.65;;;1.60;;
23636;SDS011;11995;50.842;4.456;2022-09-09T14:41:52;7.75;;;1.98;;
23636;SDS011;11995;50.842;4.456;2022-09-09T14:44:19;5.37;;;1.55;;
23636;SDS011;11995;50.842;4.456;2022-09-09T14:46:48;6.60;;;1.50;;
23636;SDS011;11995;50.842;4.456;2022-09-09T14:49:18;6.33;;;3.52;;
23636;SDS011;11995;50.842;4.456;2022-09-09T14:51:46;9.25;;;2.00;;
23636;SDS011;11995;50.842;4.456;2022-09-09T14:54:13;11.08;;;2.00;;
23636;SDS011;11995;50.842;4.456;2022-09-09T14:56:43;3.80;;;1.60;;
23636;SDS011;11995;50.842;4.456;2022-09-09T15:01:38;5.50;;;1.80;;
23636;SDS011;11995;50.842;4.456;2022-09-09T15:04:10;6.40;;;1.65;;
23636;SDS011;11995;50.842;4.456;2022-09-09T15:06:38;8.58;;;1.52;;
23636;SDS011;11995;50.842;4.456;2022-09-09T15:09:08;8.05;;;1.87;;
23636;SDS011;11995;50.842;4.456;2022-09-09T15:11:37;9.28;;;2.47;;
23636;SDS011;11995;50.842;4.456;2022-09-09T15:14:08;6.93;;;1.73;;
23636;SDS011;11995;50.842;4.456;2022-09-09T15:16:38;8.68;;;2.27;;
23636;SDS011;11995;50.842;4.456;2022-09-09T15:19:08;8.50;;;1.85;;
23636;SDS011;11995;50.842;4.456;2022-09-09T15:21:36;9.93;;;1.85;;
23636;SDS011;11995;50.842;4.456;2022-09-09T15:24:04;5.30;;;1.25;;
23636;SDS011;11995;50.842;4.456;2022-09-09T15:26:34;4.30;;;1.57;;
23636;SDS011;11995;50.842;4.456;2022-09-09T15:29:04;7.87;;;1.60;;
23636;SDS011;11995;50.842;4.456;2022-09-09T15:31:35;9.40;;;2.33;;
23636;SDS011;11995;50.842;4.456;2022-09-09T15:34:03;8.38;;;1.67;;
23636;SDS011;11995;50.842;4.456;2022-09-09T15:36:37;5.67;;;1.57;;
23636;SDS011;11995;50.842;4.456;2022-09-09T15:39:09;5.25;;;1.50;;
23636;SDS011;11995;50.842;4.456;2022-09-09T15:41:38;13.10;;;1.90;;
23636;SDS011;11995;50.842;4.456;2022-09-09T15:44:06;5.87;;;1.60;;
23636;SDS011;11995;50.842;4.456;2022-09-09T15:46:36;4.80;;;1.60;;
23636;SDS011;11995;50.842;4.456;2022-09-09T15:49:19;13.65;;;3.33;;
23636;SDS011;11995;50.842;4.456;2022-09-09T15:51:57;7.75;;;1.55;;
23636;SDS011;11995;50.842;4.456;2022-09-09T15:54:21;5.97;;;1.70;;
23636;SDS011;11995;50.842;4.456;2022-09-09T15:56:51;13.43;;;3.17;;
23636;SDS011;11995;50.842;4.456;2022-09-09T15:59:22;5.30;;;1.55;;
23636;SDS011;11995;50.842;4.456;2022-09-09T16:01:50;5.72;;;1.70;;
23636;SDS011;11995;50.842;4.456;2022-09-09T16:04:18;5.25;;;1.62;;
23636;SDS011;11995;50.842;4.456;2022-09-09T16:06:49;7.55;;;2.67;;
23636;SDS011;11995;50.842;4.456;2022-09-09T16:09:18;7.05;;;1.80;;
23636;SDS011;11995;50.842;4.456;2022-09-09T16:11:46;7.50;;;1.97;;
23636;SDS011;11995;50.842;4.456;2022-09-09T16:14:14;5.67;;;1.75;;
23636;SDS011;11995;50.842;4.456;2022-09-09T16:16:42;7.40;;;2.02;;
23636;SDS011;11995;50.842;4.456;2022-09-09T16:19:10;7.20;;;2.00;;
23636;SDS011;11995;50.842;4.456;2022-09-09T16:21:44;10.15;;;1.95;;
23636;SDS011;11995;50.842;4.456;2022-09-09T16:24:11;7.95;;;2.00;;
23636;SDS011;11995;50.842;4.456;2022-09-09T16:26:41;6.10;;;2.10;;
23636;SDS011;11995;50.842;4.456;2022-09-09T16:29:11;5.17;;;2.20;;
23636;SDS011;11995;50.842;4.456;2022-09-09T16:31:40;6.42;;;1.95;;
23636;SDS011;11995;50.842;4.456;2022-09-09T16:34:08;7.70;;;2.33;;
23636;SDS011;11995;50.842;4.456;2022-09-09T16:36:36;6.80;;;2.95;;
23636;SDS011;11995;50.842;4.456;2022-09-09T16:39:14;9.90;;;2.85;;
23636;SDS011;11995;50.842;4.456;2022-09-09T16:41:38;9.33;;;3.00;;
23636;SDS011;11995;50.842;4.456;2022-09-09T16:44:07;7.60;;;2.75;;
23636;SDS011;11995;50.842;4.456;2022-09-09T16:46:38;5.55;;;2.37;;
23636;SDS011;11995;50.842;4.456;2022-09-09T16:49:14;5.78;;;2.85;;
23636;SDS011;11995;50.842;4.456;2022-09-09T16:51:40;7.60;;;2.35;;
23636;SDS011;11995;50.842;4.456;2022-09-09T16:54:10;6.10;;;2.40;;
23636;SDS011;11995;50.842;4.456;2022-09-09T16:56:40;9.60;;;2.47;;
23636;SDS011;11995;50.842;4.456;2022-09-09T16:59:18;4.72;;;2.17;;
23636;SDS011;11995;50.842;4.456;2022-09-09T17:01:43;4.28;;;2.37;;
23636;SDS011;11995;50.842;4.456;2022-09-09T17:04:19;7.08;;;2.25;;
23636;SDS011;11995;50.842;4.456;2022-09-09T17:06:52;4.95;;;1.92;;
23636;SDS011;11995;50.842;4.456;2022-09-09T17:09:21;6.87;;;2.10;;
23636;SDS011;11995;50.842;4.456;2022-09-09T17:11:51;7.37;;;2.40;;
23636;SDS011;11995;50.842;4.456;2022-09-09T17:14:21;7.72;;;2.65;;
23636;SDS011;11995;50.842;4.456;2022-09-09T17:16:50;7.80;;;2.50;;
23636;SDS011;11995;50.842;4.456;2022-09-09T17:19:18;7.45;;;2.98;;
23636;SDS011;11995;50.842;4.456;2022-09-09T17:21:47;7.97;;;2.12;;
23636;SDS011;11995;50.842;4.456;2022-09-09T17:24:14;4.67;;;1.92;;
23636;SDS011;11995;50.842;4.456;2022-09-09T17:26:42;6.35;;;2.25;;
23636;SDS011;11995;50.842;4.456;2022-09-09T17:29:10;4.33;;;1.92;;